sensor_id;sensor_type;location;lat;lon;timestamp;P1;durP1;ratioP1;P2;durP2;ratioP2
83232;SDS011;73119;42.642;23.332;2024-02-26T00:01:40;5.63;;;4.50;;
83232;SDS011;73119;42.642;23.332;2024-02-26T00:04:08;11.38;;;4.80;;
83232;SDS011;73119;42.642;23.332;2024-02-26T00:06:34;9.23;;;3.80;;
83232;SDS011;73119;42.642;23.332;2024-02-26T00:09:00;9.48;;;4.15;;
83232;SDS011;73119;42.642;23.332;2024-02-26T00:11:27;6.97;;;4.38;;
83232;SDS011;73119;42.642;23.332;2024-02-26T00:13:54;7.03;;;4.20;;
83232;SDS011;73119;42.642;23.332;2024-02-26T00:16:20;9.43;;;3.75;;
83232;SDS011;73119;42.642;23.332;2024-02-26T00:18:46;8.50;;;4.55;;
83232;SDS011;73119;42.642;23.332;2024-02-26T00:21:12;8.07;;;4.18;;
83232;SDS011;73119;42.642;23.332;2024-02-26T00:23:38;9.02;;;3.70;;
83232;SDS011;73119;42.642;23.332;2024-02-26T00:26:04;5.80;;;4.03;;
83232;SDS011;73119;42.642;23.332;2024-02-26T00:28:30;6.55;;;4.50;;
83232;SDS011;73119;42.642;23.332;2024-02-26T00:30:56;7.45;;;3.70;;
83232;SDS011;73119;42.642;23.332;2024-02-26T00:33:22;6.03;;;3.88;;
83232;SDS011;73119;42.642;23.332;2024-02-26T00:35:48;7.13;;;4.30;;
83232;SDS011;73119;42.642;23.332;2024-02-26T00:38:14;8.52;;;5.03;;
83232;SDS011;73119;42.642;23.332;2024-02-26T00:40:40;6.60;;;4.03;;
83232;SDS011;73119;42.642;23.332;2024-02-26T00:43:07;10.65;;;4.95;;
83232;SDS011;73119;42.642;23.332;2024-02-26T00:45:33;8.70;;;4.55;;
83232;SDS011;73119;42.642;23.332;2024-02-26T00:47:59;9.93;;;6.55;;
83232;SDS011;73119;42.642;23.332;2024-02-26T00:50:32;14.23;;;7.35;;
83232;SDS011;73119;42.642;23.332;2024-02-26T00:52:58;10.38;;;5.82;;
83232;SDS011;73119;42.642;23.332;2024-02-26T00:55:24;13.40;;;7.35;;
83232;SDS011;73119;42.642;23.332;2024-02-26T00:57:50;14.90;;;6.53;;
83232;SDS011;73119;42.642;23.332;2024-02-26T01:00:16;14.88;;;7.72;;
83232;SDS011;73119;42.642;23.332;2024-02-26T01:02:42;15.75;;;8.50;;
83232;SDS011;73119;42.642;23.332;2024-02-26T01:05:11;13.00;;;8.05;;
83232;SDS011;73119;42.642;23.332;2024-02-26T01:07:37;11.10;;;7.63;;
83232;SDS011;73119;42.642;23.332;2024-02-26T01:10:04;15.63;;;7.95;;
83232;SDS011;73119;42.642;23.332;2024-02-26T01:12:33;11.82;;;7.75;;
83232;SDS011;73119;42.642;23.332;2024-02-26T01:15:00;11.75;;;7.47;;
83232;SDS011;73119;42.642;23.332;2024-02-26T01:17:27;11.95;;;7.43;;
83232;SDS011;73119;42.642;23.332;2024-02-26T01:19:53;15.90;;;9.27;;
83232;SDS011;73119;42.642;23.332;2024-02-26T01:22:19;14.00;;;7.93;;
83232;SDS011;73119;42.642;23.332;2024-02-26T01:24:45;15.45;;;8.13;;
83232;SDS011;73119;42.642;23.332;2024-02-26T01:27:11;13.07;;;8.13;;
83232;SDS011;73119;42.642;23.332;2024-02-26T01:29:39;14.05;;;8.35;;
83232;SDS011;73119;42.642;23.332;2024-02-26T01:32:05;14.50;;;8.60;;
83232;SDS011;73119;42.642;23.332;2024-02-26T01:34:31;10.05;;;7.07;;
83232;SDS011;73119;42.642;23.332;2024-02-26T01:36:57;13.95;;;8.52;;
83232;SDS011;73119;42.642;23.332;2024-02-26T01:39:23;13.95;;;7.80;;
83232;SDS011;73119;42.642;23.332;2024-02-26T01:41:49;14.63;;;8.48;;
83232;SDS011;73119;42.642;23.332;2024-02-26T01:44:15;11.07;;;7.88;;
83232;SDS011;73119;42.642;23.332;2024-02-26T01:46:41;16.08;;;8.60;;
83232;SDS011;73119;42.642;23.332;2024-02-26T01:49:11;14.07;;;7.85;;
83232;SDS011;73119;42.642;23.332;2024-02-26T01:51:38;14.25;;;7.10;;
83232;SDS011;73119;42.642;23.332;2024-02-26T01:54:05;12.15;;;7.22;;
83232;SDS011;73119;42.642;23.332;2024-02-26T01:56:31;12.77;;;8.15;;
83232;SDS011;73119;42.642;23.332;2024-02-26T01:58:58;11.50;;;5.57;;
83232;SDS011;73119;42.642;23.332;2024-02-26T02:01:27;12.27;;;5.97;;
83232;SDS011;73119;42.642;23.332;2024-02-26T02:03:56;12.18;;;5.78;;
83232;SDS011;73119;42.642;23.332;2024-02-26T02:06:23;11.55;;;6.55;;
83232;SDS011;73119;42.642;23.332;2024-02-26T02:08:49;11.00;;;7.70;;
83232;SDS011;73119;42.642;23.332;2024-02-26T02:11:16;11.02;;;6.70;;
83232;SDS011;73119;42.642;23.332;2024-02-26T02:13:42;11.63;;;6.95;;
83232;SDS011;73119;42.642;23.332;2024-02-26T02:16:08;11.50;;;7.25;;
83232;SDS011;73119;42.642;23.332;2024-02-26T02:18:34;9.90;;;5.70;;
83232;SDS011;73119;42.642;23.332;2024-02-26T02:21:01;11.05;;;6.38;;
83232;SDS011;73119;42.642;23.332;2024-02-26T02:23:27;11.40;;;6.32;;
83232;SDS011;73119;42.642;23.332;2024-02-26T02:25:53;9.98;;;6.00;;
83232;SDS011;73119;42.642;23.332;2024-02-26T02:28:20;11.02;;;6.18;;
83232;SDS011;73119;42.642;23.332;2024-02-26T02:30:46;14.85;;;7.32;;
83232;SDS011;73119;42.642;23.332;2024-02-26T02:33:12;16.08;;;7.50;;
83232;SDS011;73119;42.642;23.332;2024-02-26T02:35:40;11.90;;;7.65;;
83232;SDS011;73119;42.642;23.332;2024-02-26T02:38:06;12.35;;;6.93;;
83232;SDS011;73119;42.642;23.332;2024-02-26T02:40:32;11.32;;;7.32;;
83232;SDS011;73119;42.642;23.332;2024-02-26T02:42:58;11.35;;;7.47;;
83232;SDS011;73119;42.642;23.332;2024-02-26T02:45:25;13.68;;;6.93;;
83232;SDS011;73119;42.642;23.332;2024-02-26T02:47:51;12.10;;;7.22;;
83232;SDS011;73119;42.642;23.332;2024-02-26T02:50:17;13.80;;;8.38;;
83232;SDS011;73119;42.642;23.332;2024-02-26T02:52:43;11.77;;;7.25;;
83232;SDS011;73119;42.642;23.332;2024-02-26T02:55:09;11.57;;;7.18;;
83232;SDS011;73119;42.642;23.332;2024-02-26T02:57:35;13.93;;;7.35;;
83232;SDS011;73119;42.642;23.332;2024-02-26T03:00:06;13.52;;;7.80;;
83232;SDS011;73119;42.642;23.332;2024-02-26T03:02:33;11.77;;;7.13;;
83232;SDS011;73119;42.642;23.332;2024-02-26T03:05:01;15.13;;;9.02;;
83232;SDS011;73119;42.642;23.332;2024-02-26T03:07:27;14.45;;;8.70;;
83232;SDS011;73119;42.642;23.332;2024-02-26T03:09:54;13.43;;;7.95;;
83232;SDS011;73119;42.642;23.332;2024-02-26T03:12:20;11.07;;;7.80;;
83232;SDS011;73119;42.642;23.332;2024-02-26T03:14:46;14.63;;;8.80;;
83232;SDS011;73119;42.642;23.332;2024-02-26T03:17:12;14.88;;;7.82;;
83232;SDS011;73119;42.642;23.332;2024-02-26T03:19:38;13.15;;;8.40;;
83232;SDS011;73119;42.642;23.332;2024-02-26T03:22:04;12.18;;;7.93;;
83232;SDS011;73119;42.642;23.332;2024-02-26T03:24:30;12.85;;;8.00;;
83232;SDS011;73119;42.642;23.332;2024-02-26T03:26:56;10.23;;;7.43;;
83232;SDS011;73119;42.642;23.332;2024-02-26T03:29:22;15.88;;;7.18;;
83232;SDS011;73119;42.642;23.332;2024-02-26T03:31:48;14.77;;;8.43;;
83232;SDS011;73119;42.642;23.332;2024-02-26T03:34:14;9.10;;;6.70;;
83232;SDS011;73119;42.642;23.332;2024-02-26T03:36:41;13.65;;;7.95;;
83232;SDS011;73119;42.642;23.332;2024-02-26T03:39:07;15.32;;;7.55;;
83232;SDS011;73119;42.642;23.332;2024-02-26T03:41:33;12.85;;;7.45;;
83232;SDS011;73119;42.642;23.332;2024-02-26T03:44:00;9.40;;;5.50;;
83232;SDS011;73119;42.642;23.332;2024-02-26T03:46:26;13.13;;;7.03;;
83232;SDS011;73119;42.642;23.332;2024-02-26T03:48:52;11.25;;;7.72;;
83232;SDS011;73119;42.642;23.332;2024-02-26T03:51:18;9.95;;;7.03;;
83232;SDS011;73119;42.642;23.332;2024-02-26T03:53:44;12.25;;;7.10;;
83232;SDS011;73119;42.642;23.332;2024-02-26T03:56:13;10.95;;;6.90;;
83232;SDS011;73119;42.642;23.332;2024-02-26T03:58:39;12.75;;;6.70;;
83232;SDS011;73119;42.642;23.332;2024-02-26T04:01:08;11.05;;;7.00;;
83232;SDS011;73119;42.642;23.332;2024-02-26T04:03:34;13.25;;;7.72;;
83232;SDS011;73119;42.642;23.332;2024-02-26T04:06:01;9.73;;;6.05;;
83232;SDS011;73119;42.642;23.332;2024-02-26T04:08:28;10.65;;;6.15;;
83232;SDS011;73119;42.642;23.332;2024-02-26T04:10:54;12.70;;;8.30;;
83232;SDS011;73119;42.642;23.332;2024-02-26T04:13:20;14.52;;;9.13;;
83232;SDS011;73119;42.642;23.332;2024-02-26T04:15:46;12.57;;;8.25;;
83232;SDS011;73119;42.642;23.332;2024-02-26T04:18:12;16.77;;;8.40;;
83232;SDS011;73119;42.642;23.332;2024-02-26T04:20:39;10.98;;;6.82;;
83232;SDS011;73119;42.642;23.332;2024-02-26T04:25:33;12.38;;;7.18;;
83232;SDS011;73119;42.642;23.332;2024-02-26T04:27:59;10.05;;;6.85;;
83232;SDS011;73119;42.642;23.332;2024-02-26T04:30:25;10.25;;;6.68;;
83232;SDS011;73119;42.642;23.332;2024-02-26T04:32:51;11.55;;;6.38;;
83232;SDS011;73119;42.642;23.332;2024-02-26T04:35:17;9.65;;;6.10;;
83232;SDS011;73119;42.642;23.332;2024-02-26T04:37:43;11.30;;;6.88;;
83232;SDS011;73119;42.642;23.332;2024-02-26T04:40:09;13.98;;;7.18;;
83232;SDS011;73119;42.642;23.332;2024-02-26T04:42:35;9.32;;;6.55;;
83232;SDS011;73119;42.642;23.332;2024-02-26T04:45:01;12.07;;;7.28;;
83232;SDS011;73119;42.642;23.332;2024-02-26T04:47:27;12.85;;;8.05;;
83232;SDS011;73119;42.642;23.332;2024-02-26T04:49:55;9.32;;;6.60;;
83232;SDS011;73119;42.642;23.332;2024-02-26T04:52:21;12.35;;;7.68;;
83232;SDS011;73119;42.642;23.332;2024-02-26T04:54:47;11.25;;;7.72;;
83232;SDS011;73119;42.642;23.332;2024-02-26T04:57:13;15.82;;;7.30;;
83232;SDS011;73119;42.642;23.332;2024-02-26T04:59:39;13.95;;;8.30;;
83232;SDS011;73119;42.642;23.332;2024-02-26T05:02:07;11.30;;;7.03;;
83232;SDS011;73119;42.642;23.332;2024-02-26T05:04:33;10.85;;;6.57;;
83232;SDS011;73119;42.642;23.332;2024-02-26T05:06:59;14.82;;;8.10;;
83232;SDS011;73119;42.642;23.332;2024-02-26T05:09:25;14.73;;;7.68;;
83232;SDS011;73119;42.642;23.332;2024-02-26T05:11:51;12.63;;;8.00;;
83232;SDS011;73119;42.642;23.332;2024-02-26T05:14:17;16.65;;;9.30;;
83232;SDS011;73119;42.642;23.332;2024-02-26T05:19:47;18.02;;;9.50;;
83232;SDS011;73119;42.642;23.332;2024-02-26T05:22:13;14.57;;;9.35;;
83232;SDS011;73119;42.642;23.332;2024-02-26T05:24:39;16.15;;;9.23;;
83232;SDS011;73119;42.642;23.332;2024-02-26T05:27:05;14.43;;;9.48;;
83232;SDS011;73119;42.642;23.332;2024-02-26T05:29:31;14.30;;;9.75;;
83232;SDS011;73119;42.642;23.332;2024-02-26T05:31:57;14.93;;;7.90;;
83232;SDS011;73119;42.642;23.332;2024-02-26T05:34:23;16.83;;;8.63;;
83232;SDS011;73119;42.642;23.332;2024-02-26T05:36:49;12.52;;;9.05;;
83232;SDS011;73119;42.642;23.332;2024-02-26T05:39:15;14.90;;;9.18;;
83232;SDS011;73119;42.642;23.332;2024-02-26T05:41:41;15.93;;;8.82;;
83232;SDS011;73119;42.642;23.332;2024-02-26T05:44:08;15.23;;;8.73;;
83232;SDS011;73119;42.642;23.332;2024-02-26T05:46:35;16.17;;;9.65;;
83232;SDS011;73119;42.642;23.332;2024-02-26T05:49:01;15.48;;;10.32;;
83232;SDS011;73119;42.642;23.332;2024-02-26T05:51:28;15.38;;;9.07;;
83232;SDS011;73119;42.642;23.332;2024-02-26T05:53:54;12.50;;;8.55;;
83232;SDS011;73119;42.642;23.332;2024-02-26T05:56:23;13.27;;;7.47;;
83232;SDS011;73119;42.642;23.332;2024-02-26T05:58:49;13.13;;;7.18;;
83232;SDS011;73119;42.642;23.332;2024-02-26T06:01:16;10.95;;;6.97;;
83232;SDS011;73119;42.642;23.332;2024-02-26T06:03:42;10.68;;;6.78;;
83232;SDS011;73119;42.642;23.332;2024-02-26T06:06:08;10.05;;;7.18;;
83232;SDS011;73119;42.642;23.332;2024-02-26T06:08:35;10.98;;;6.55;;
83232;SDS011;73119;42.642;23.332;2024-02-26T06:11:05;10.93;;;6.10;;
83232;SDS011;73119;42.642;23.332;2024-02-26T06:13:31;14.55;;;7.65;;
83232;SDS011;73119;42.642;23.332;2024-02-26T06:15:58;17.10;;;7.80;;
83232;SDS011;73119;42.642;23.332;2024-02-26T06:18:24;15.00;;;8.52;;
83232;SDS011;73119;42.642;23.332;2024-02-26T06:20:50;15.10;;;8.15;;
83232;SDS011;73119;42.642;23.332;2024-02-26T06:23:16;12.00;;;8.20;;
83232;SDS011;73119;42.642;23.332;2024-02-26T06:25:42;12.77;;;9.38;;
83232;SDS011;73119;42.642;23.332;2024-02-26T06:28:08;26.75;;;9.98;;
83232;SDS011;73119;42.642;23.332;2024-02-26T06:30:34;16.25;;;9.57;;
83232;SDS011;73119;42.642;23.332;2024-02-26T06:33:01;22.33;;;9.98;;
83232;SDS011;73119;42.642;23.332;2024-02-26T06:35:28;18.88;;;10.70;;
83232;SDS011;73119;42.642;23.332;2024-02-26T06:37:54;14.85;;;9.95;;
83232;SDS011;73119;42.642;23.332;2024-02-26T06:40:20;14.77;;;8.52;;
83232;SDS011;73119;42.642;23.332;2024-02-26T06:42:46;18.70;;;8.05;;
83232;SDS011;73119;42.642;23.332;2024-02-26T06:45:12;19.30;;;8.18;;
83232;SDS011;73119;42.642;23.332;2024-02-26T06:47:38;12.00;;;7.22;;
83232;SDS011;73119;42.642;23.332;2024-02-26T06:50:04;12.75;;;7.90;;
83232;SDS011;73119;42.642;23.332;2024-02-26T06:52:30;12.70;;;8.18;;
83232;SDS011;73119;42.642;23.332;2024-02-26T06:54:56;12.73;;;7.60;;
83232;SDS011;73119;42.642;23.332;2024-02-26T06:57:22;11.35;;;8.05;;
83232;SDS011;73119;42.642;23.332;2024-02-26T06:59:49;12.30;;;8.27;;
83232;SDS011;73119;42.642;23.332;2024-02-26T07:02:15;12.55;;;7.22;;
83232;SDS011;73119;42.642;23.332;2024-02-26T07:04:41;14.27;;;8.23;;
83232;SDS011;73119;42.642;23.332;2024-02-26T07:07:08;13.15;;;8.60;;
83232;SDS011;73119;42.642;23.332;2024-02-26T07:09:34;16.05;;;7.45;;
83232;SDS011;73119;42.642;23.332;2024-02-26T07:12:00;15.05;;;7.20;;
83232;SDS011;73119;42.642;23.332;2024-02-26T07:14:26;15.30;;;7.40;;
83232;SDS011;73119;42.642;23.332;2024-02-26T07:16:52;12.65;;;6.88;;
83232;SDS011;73119;42.642;23.332;2024-02-26T07:19:18;13.50;;;7.45;;
83232;SDS011;73119;42.642;23.332;2024-02-26T07:21:44;12.52;;;7.22;;
83232;SDS011;73119;42.642;23.332;2024-02-26T07:24:10;7.47;;;5.15;;
83232;SDS011;73119;42.642;23.332;2024-02-26T07:26:36;11.85;;;7.35;;
83232;SDS011;73119;42.642;23.332;2024-02-26T07:29:02;6.32;;;5.38;;
83232;SDS011;73119;42.642;23.332;2024-02-26T07:31:29;7.32;;;5.47;;
83232;SDS011;73119;42.642;23.332;2024-02-26T07:33:55;9.40;;;5.93;;
83232;SDS011;73119;42.642;23.332;2024-02-26T07:36:21;13.05;;;7.90;;
83232;SDS011;73119;42.642;23.332;2024-02-26T07:38:47;10.05;;;5.80;;
83232;SDS011;73119;42.642;23.332;2024-02-26T07:41:13;8.40;;;5.70;;
83232;SDS011;73119;42.642;23.332;2024-02-26T07:43:39;13.55;;;5.35;;
83232;SDS011;73119;42.642;23.332;2024-02-26T07:46:06;15.07;;;5.50;;
83232;SDS011;73119;42.642;23.332;2024-02-26T07:48:32;8.52;;;5.05;;
83232;SDS011;73119;42.642;23.332;2024-02-26T07:50:58;9.07;;;5.45;;
83232;SDS011;73119;42.642;23.332;2024-02-26T07:53:25;13.98;;;7.00;;
83232;SDS011;73119;42.642;23.332;2024-02-26T07:55:51;8.60;;;5.13;;
83232;SDS011;73119;42.642;23.332;2024-02-26T07:58:17;7.13;;;4.55;;
83232;SDS011;73119;42.642;23.332;2024-02-26T08:00:43;7.30;;;4.57;;
83232;SDS011;73119;42.642;23.332;2024-02-26T08:05:38;6.72;;;4.28;;
83232;SDS011;73119;42.642;23.332;2024-02-26T08:08:06;8.00;;;5.25;;
83232;SDS011;73119;42.642;23.332;2024-02-26T08:10:32;6.53;;;4.60;;
83232;SDS011;73119;42.642;23.332;2024-02-26T08:12:58;9.90;;;5.38;;
83232;SDS011;73119;42.642;23.332;2024-02-26T08:15:30;20.67;;;9.35;;
83232;SDS011;73119;42.642;23.332;2024-02-26T08:17:57;14.32;;;4.70;;
83232;SDS011;73119;42.642;23.332;2024-02-26T08:20:23;9.15;;;4.85;;
83232;SDS011;73119;42.642;23.332;2024-02-26T08:22:49;6.10;;;4.20;;
83232;SDS011;73119;42.642;23.332;2024-02-26T08:25:15;9.43;;;4.00;;
83232;SDS011;73119;42.642;23.332;2024-02-26T08:27:41;9.38;;;5.35;;
83232;SDS011;73119;42.642;23.332;2024-02-26T08:30:08;6.85;;;4.38;;
83232;SDS011;73119;42.642;23.332;2024-02-26T08:32:34;7.10;;;4.00;;
83232;SDS011;73119;42.642;23.332;2024-02-26T08:35:00;8.07;;;4.10;;
83232;SDS011;73119;42.642;23.332;2024-02-26T08:37:26;7.65;;;4.18;;
83232;SDS011;73119;42.642;23.332;2024-02-26T08:39:52;10.30;;;5.30;;
83232;SDS011;73119;42.642;23.332;2024-02-26T08:42:18;12.63;;;7.32;;
83232;SDS011;73119;42.642;23.332;2024-02-26T08:44:44;8.73;;;4.82;;
83232;SDS011;73119;42.642;23.332;2024-02-26T08:47:10;5.93;;;4.07;;
83232;SDS011;73119;42.642;23.332;2024-02-26T08:49:41;6.30;;;4.35;;
83232;SDS011;73119;42.642;23.332;2024-02-26T08:52:07;7.90;;;4.07;;
83232;SDS011;73119;42.642;23.332;2024-02-26T08:54:33;7.22;;;4.72;;
83232;SDS011;73119;42.642;23.332;2024-02-26T08:56:59;6.78;;;4.95;;
83232;SDS011;73119;42.642;23.332;2024-02-26T08:59:25;8.20;;;5.07;;
83232;SDS011;73119;42.642;23.332;2024-02-26T09:01:51;6.72;;;4.20;;
83232;SDS011;73119;42.642;23.332;2024-02-26T09:04:17;6.75;;;3.55;;
83232;SDS011;73119;42.642;23.332;2024-02-26T09:06:43;4.70;;;3.08;;
83232;SDS011;73119;42.642;23.332;2024-02-26T09:09:09;8.95;;;4.47;;
83232;SDS011;73119;42.642;23.332;2024-02-26T09:11:36;6.78;;;3.92;;
83232;SDS011;73119;42.642;23.332;2024-02-26T09:14:02;6.22;;;4.72;;
83232;SDS011;73119;42.642;23.332;2024-02-26T09:16:28;8.40;;;4.75;;
83232;SDS011;73119;42.642;23.332;2024-02-26T09:18:55;9.90;;;4.22;;
83232;SDS011;73119;42.642;23.332;2024-02-26T09:21:21;6.28;;;3.75;;
83232;SDS011;73119;42.642;23.332;2024-02-26T09:23:51;8.20;;;4.20;;
83232;SDS011;73119;42.642;23.332;2024-02-26T09:26:18;7.13;;;4.20;;
83232;SDS011;73119;42.642;23.332;2024-02-26T09:28:44;5.32;;;3.90;;
83232;SDS011;73119;42.642;23.332;2024-02-26T09:31:10;8.18;;;3.95;;
83232;SDS011;73119;42.642;23.332;2024-02-26T09:33:36;5.25;;;4.13;;
83232;SDS011;73119;42.642;23.332;2024-02-26T09:36:03;8.55;;;5.50;;
83232;SDS011;73119;42.642;23.332;2024-02-26T09:38:29;5.38;;;3.67;;
83232;SDS011;73119;42.642;23.332;2024-02-26T09:40:58;4.65;;;3.47;;
83232;SDS011;73119;42.642;23.332;2024-02-26T09:43:24;4.97;;;3.40;;
83232;SDS011;73119;42.642;23.332;2024-02-26T09:45:54;10.25;;;4.75;;
83232;SDS011;73119;42.642;23.332;2024-02-26T09:48:20;6.25;;;3.55;;
83232;SDS011;73119;42.642;23.332;2024-02-26T09:50:47;4.90;;;3.50;;
83232;SDS011;73119;42.642;23.332;2024-02-26T09:53:13;6.60;;;4.35;;
83232;SDS011;73119;42.642;23.332;2024-02-26T09:55:40;7.35;;;3.60;;
83232;SDS011;73119;42.642;23.332;2024-02-26T09:58:06;6.35;;;3.35;;
83232;SDS011;73119;42.642;23.332;2024-02-26T10:00:32;6.32;;;4.32;;
83232;SDS011;73119;42.642;23.332;2024-02-26T10:03:03;10.35;;;4.43;;
83232;SDS011;73119;42.642;23.332;2024-02-26T10:05:31;7.97;;;4.43;;
83232;SDS011;73119;42.642;23.332;2024-02-26T10:07:57;6.10;;;3.85;;
83232;SDS011;73119;42.642;23.332;2024-02-26T10:10:30;5.22;;;3.80;;
83232;SDS011;73119;42.642;23.332;2024-02-26T10:12:56;6.00;;;3.60;;
83232;SDS011;73119;42.642;23.332;2024-02-26T10:15:22;5.82;;;4.13;;
83232;SDS011;73119;42.642;23.332;2024-02-26T10:17:48;9.93;;;4.32;;
83232;SDS011;73119;42.642;23.332;2024-02-26T10:20:16;5.93;;;4.65;;
83232;SDS011;73119;42.642;23.332;2024-02-26T10:22:48;4.70;;;3.80;;
83232;SDS011;73119;42.642;23.332;2024-02-26T10:25:15;6.07;;;4.28;;
83232;SDS011;73119;42.642;23.332;2024-02-26T10:27:41;7.15;;;4.45;;
83232;SDS011;73119;42.642;23.332;2024-02-26T10:30:20;4.18;;;3.25;;
83232;SDS011;73119;42.642;23.332;2024-02-26T10:32:47;9.40;;;5.18;;
83232;SDS011;73119;42.642;23.332;2024-02-26T10:35:17;6.75;;;4.60;;
83232;SDS011;73119;42.642;23.332;2024-02-26T10:37:45;5.93;;;3.85;;
83232;SDS011;73119;42.642;23.332;2024-02-26T10:40:12;6.78;;;4.22;;
83232;SDS011;73119;42.642;23.332;2024-02-26T10:42:39;5.00;;;3.92;;
83232;SDS011;73119;42.642;23.332;2024-02-26T10:45:05;6.20;;;4.60;;
83232;SDS011;73119;42.642;23.332;2024-02-26T10:47:32;4.90;;;3.92;;
83232;SDS011;73119;42.642;23.332;2024-02-26T10:49:58;6.50;;;4.68;;
83232;SDS011;73119;42.642;23.332;2024-02-26T10:52:24;7.03;;;4.13;;
83232;SDS011;73119;42.642;23.332;2024-02-26T10:54:53;5.45;;;4.20;;
83232;SDS011;73119;42.642;23.332;2024-02-26T10:57:19;8.35;;;4.45;;
83232;SDS011;73119;42.642;23.332;2024-02-26T10:59:46;6.63;;;4.65;;
83232;SDS011;73119;42.642;23.332;2024-02-26T11:02:14;7.45;;;5.75;;
83232;SDS011;73119;42.642;23.332;2024-02-26T11:04:40;7.43;;;4.90;;
83232;SDS011;73119;42.642;23.332;2024-02-26T11:07:07;8.05;;;5.10;;
83232;SDS011;73119;42.642;23.332;2024-02-26T11:09:33;6.38;;;4.03;;
83232;SDS011;73119;42.642;23.332;2024-02-26T11:14:28;3.92;;;3.05;;
83232;SDS011;73119;42.642;23.332;2024-02-26T11:16:56;5.68;;;4.28;;
83232;SDS011;73119;42.642;23.332;2024-02-26T11:19:22;9.82;;;4.75;;
83232;SDS011;73119;42.642;23.332;2024-02-26T11:21:50;20.48;;;6.18;;
83232;SDS011;73119;42.642;23.332;2024-02-26T11:24:16;6.43;;;4.25;;
83232;SDS011;73119;42.642;23.332;2024-02-26T11:26:53;8.55;;;4.93;;
83232;SDS011;73119;42.642;23.332;2024-02-26T11:29:27;7.57;;;4.40;;
83232;SDS011;73119;42.642;23.332;2024-02-26T11:31:55;7.80;;;4.80;;
83232;SDS011;73119;42.642;23.332;2024-02-26T11:34:21;7.18;;;4.30;;
83232;SDS011;73119;42.642;23.332;2024-02-26T11:36:48;6.85;;;5.25;;
83232;SDS011;73119;42.642;23.332;2024-02-26T11:39:14;5.55;;;4.20;;
83232;SDS011;73119;42.642;23.332;2024-02-26T11:41:42;11.60;;;5.38;;
83232;SDS011;73119;42.642;23.332;2024-02-26T11:44:08;9.60;;;3.60;;
83232;SDS011;73119;42.642;23.332;2024-02-26T11:46:40;7.35;;;4.25;;
83232;SDS011;73119;42.642;23.332;2024-02-26T11:51:56;4.60;;;3.95;;
83232;SDS011;73119;42.642;23.332;2024-02-26T11:57:27;6.93;;;4.15;;
83232;SDS011;73119;42.642;23.332;2024-02-26T12:00:03;9.85;;;4.47;;
83232;SDS011;73119;42.642;23.332;2024-02-26T12:02:45;5.75;;;3.45;;
83232;SDS011;73119;42.642;23.332;2024-02-26T12:05:12;8.57;;;4.28;;
83232;SDS011;73119;42.642;23.332;2024-02-26T12:07:42;5.95;;;3.30;;
83232;SDS011;73119;42.642;23.332;2024-02-26T12:10:15;5.82;;;3.72;;
83232;SDS011;73119;42.642;23.332;2024-02-26T12:12:41;9.43;;;6.82;;
83232;SDS011;73119;42.642;23.332;2024-02-26T12:15:08;10.10;;;3.90;;
83232;SDS011;73119;42.642;23.332;2024-02-26T12:17:36;7.97;;;3.95;;
83232;SDS011;73119;42.642;23.332;2024-02-26T12:20:11;6.30;;;4.05;;
83232;SDS011;73119;42.642;23.332;2024-02-26T12:22:39;6.97;;;3.25;;
83232;SDS011;73119;42.642;23.332;2024-02-26T12:25:06;9.07;;;4.20;;
83232;SDS011;73119;42.642;23.332;2024-02-26T12:27:32;6.53;;;3.72;;
83232;SDS011;73119;42.642;23.332;2024-02-26T12:29:58;4.72;;;3.20;;
83232;SDS011;73119;42.642;23.332;2024-02-26T12:32:24;5.90;;;3.65;;
83232;SDS011;73119;42.642;23.332;2024-02-26T12:34:50;7.03;;;3.65;;
83232;SDS011;73119;42.642;23.332;2024-02-26T12:37:16;4.32;;;2.72;;
83232;SDS011;73119;42.642;23.332;2024-02-26T12:39:42;6.53;;;3.88;;
83232;SDS011;73119;42.642;23.332;2024-02-26T12:42:08;5.38;;;2.97;;
83232;SDS011;73119;42.642;23.332;2024-02-26T12:44:35;5.07;;;3.15;;
83232;SDS011;73119;42.642;23.332;2024-02-26T12:47:04;4.97;;;3.50;;
83232;SDS011;73119;42.642;23.332;2024-02-26T12:49:31;5.85;;;3.55;;
83232;SDS011;73119;42.642;23.332;2024-02-26T12:51:58;10.63;;;3.97;;
83232;SDS011;73119;42.642;23.332;2024-02-26T12:54:29;14.10;;;5.80;;
83232;SDS011;73119;42.642;23.332;2024-02-26T12:56:56;5.97;;;3.95;;
83232;SDS011;73119;42.642;23.332;2024-02-26T12:59:22;8.38;;;4.32;;
83232;SDS011;73119;42.642;23.332;2024-02-26T13:01:48;6.35;;;3.90;;
83232;SDS011;73119;42.642;23.332;2024-02-26T13:04:15;4.68;;;2.92;;
83232;SDS011;73119;42.642;23.332;2024-02-26T13:06:41;5.25;;;2.88;;
83232;SDS011;73119;42.642;23.332;2024-02-26T13:09:08;8.63;;;4.15;;
83232;SDS011;73119;42.642;23.332;2024-02-26T13:11:35;8.60;;;3.70;;
83232;SDS011;73119;42.642;23.332;2024-02-26T13:14:02;6.40;;;3.50;;
83232;SDS011;73119;42.642;23.332;2024-02-26T13:16:28;5.90;;;2.58;;
83232;SDS011;73119;42.642;23.332;2024-02-26T13:18:54;7.95;;;3.42;;
83232;SDS011;73119;42.642;23.332;2024-02-26T13:21:20;5.50;;;3.25;;
83232;SDS011;73119;42.642;23.332;2024-02-26T13:23:52;5.30;;;3.58;;
83232;SDS011;73119;42.642;23.332;2024-02-26T13:26:21;7.97;;;3.40;;
83232;SDS011;73119;42.642;23.332;2024-02-26T13:28:58;3.72;;;2.90;;
83232;SDS011;73119;42.642;23.332;2024-02-26T13:31:24;4.97;;;3.30;;
83232;SDS011;73119;42.642;23.332;2024-02-26T13:33:50;4.45;;;3.17;;
83232;SDS011;73119;42.642;23.332;2024-02-26T13:36:20;9.75;;;3.50;;
83232;SDS011;73119;42.642;23.332;2024-02-26T13:38:52;4.97;;;3.38;;
83232;SDS011;73119;42.642;23.332;2024-02-26T13:41:19;6.43;;;3.30;;
83232;SDS011;73119;42.642;23.332;2024-02-26T13:43:46;8.20;;;3.13;;
83232;SDS011;73119;42.642;23.332;2024-02-26T13:46:12;4.28;;;3.60;;
83232;SDS011;73119;42.642;23.332;2024-02-26T13:48:40;5.65;;;3.08;;
83232;SDS011;73119;42.642;23.332;2024-02-26T13:51:06;6.47;;;3.45;;
83232;SDS011;73119;42.642;23.332;2024-02-26T13:53:32;5.57;;;3.15;;
83232;SDS011;73119;42.642;23.332;2024-02-26T13:55:58;6.68;;;3.58;;
83232;SDS011;73119;42.642;23.332;2024-02-26T13:58:26;6.18;;;2.97;;
83232;SDS011;73119;42.642;23.332;2024-02-26T14:00:52;5.53;;;3.42;;
83232;SDS011;73119;42.642;23.332;2024-02-26T14:03:19;7.70;;;3.33;;
83232;SDS011;73119;42.642;23.332;2024-02-26T14:05:45;4.93;;;3.20;;
83232;SDS011;73119;42.642;23.332;2024-02-26T14:08:11;5.25;;;3.22;;
83232;SDS011;73119;42.642;23.332;2024-02-26T14:10:38;6.18;;;3.47;;
83232;SDS011;73119;42.642;23.332;2024-02-26T14:13:04;5.10;;;3.30;;
83232;SDS011;73119;42.642;23.332;2024-02-26T14:15:30;5.90;;;3.65;;
83232;SDS011;73119;42.642;23.332;2024-02-26T14:17:57;4.22;;;2.88;;
83232;SDS011;73119;42.642;23.332;2024-02-26T14:20:23;7.18;;;3.33;;
83232;SDS011;73119;42.642;23.332;2024-02-26T14:22:50;4.50;;;2.78;;
83232;SDS011;73119;42.642;23.332;2024-02-26T14:25:22;8.27;;;3.88;;
83232;SDS011;73119;42.642;23.332;2024-02-26T14:27:49;7.90;;;3.90;;
83232;SDS011;73119;42.642;23.332;2024-02-26T14:30:15;4.70;;;3.10;;
83232;SDS011;73119;42.642;23.332;2024-02-26T14:32:41;6.70;;;3.75;;
83232;SDS011;73119;42.642;23.332;2024-02-26T14:35:07;6.70;;;3.95;;
83232;SDS011;73119;42.642;23.332;2024-02-26T14:37:36;9.80;;;3.63;;
83232;SDS011;73119;42.642;23.332;2024-02-26T14:40:02;5.30;;;3.08;;
83232;SDS011;73119;42.642;23.332;2024-02-26T14:42:29;6.70;;;3.53;;